sensor_id;sensor_type;location;lat;lon;timestamp;pressure;altitude;pressure_sealevel;temperature;humidity
20630;BME280;17386;43.846;25.950;2024-03-02T00:00:15;101053.88;;;8.99;nan
20630;BME280;17386;43.846;25.950;2024-03-02T00:02:45;101042.25;;;9.05;nan
20630;BME280;17386;43.846;25.950;2024-03-02T00:05:12;101052.22;;;8.95;nan
20630;BME280;17386;43.846;25.950;2024-03-02T00:07:41;101056.56;;;8.98;nan
20630;BME280;17386;43.846;25.950;2024-03-02T00:10:09;101040.59;;;9.01;nan
20630;BME280;17386;43.846;25.950;2024-03-02T00:12:36;101044.06;;;9.03;nan
20630;BME280;17386;43.846;25.950;2024-03-02T00:15:05;101045.09;;;8.97;nan
20630;BME280;17386;43.846;25.950;2024-03-02T00:17:32;101046.91;;;8.95;nan
20630;BME280;17386;43.846;25.950;2024-03-02T00:19:57;101050.78;;;8.81;nan
20630;BME280;17386;43.846;25.950;2024-03-02T00:22:23;101049.59;;;8.94;nan
20630;BME280;17386;43.846;25.950;2024-03-02T00:24:48;101046.09;;;8.92;nan
20630;BME280;17386;43.846;25.950;2024-03-02T00:27:15;101047.28;;;8.80;nan
20630;BME280;17386;43.846;25.950;2024-03-02T00:29:42;101036.91;;;8.69;nan
20630;BME280;17386;43.846;25.950;2024-03-02T00:32:13;101034.41;;;8.63;nan
20630;BME280;17386;43.846;25.950;2024-03-02T00:34:39;101030.84;;;8.64;nan
20630;BME280;17386;43.846;25.950;2024-03-02T00:37:05;101035.22;;;8.67;nan
20630;BME280;17386;43.846;25.950;2024-03-02T00:39:30;101022.84;;;8.67;nan
20630;BME280;17386;43.846;25.950;2024-03-02T00:41:56;101018.50;;;8.65;nan
20630;BME280;17386;43.846;25.950;2024-03-02T00:44:24;101018.66;;;8.57;nan
20630;BME280;17386;43.846;25.950;2024-03-02T00:46:50;101021.53;;;8.48;nan
20630;BME280;17386;43.846;25.950;2024-03-02T00:49:23;101012.72;;;8.47;nan
20630;BME280;17386;43.846;25.950;2024-03-02T00:51:50;101012.81;;;8.43;nan
20630;BME280;17386;43.846;25.950;2024-03-02T00:54:20;101009.09;;;8.52;nan
20630;BME280;17386;43.846;25.950;2024-03-02T00:56:47;101001.34;;;8.42;nan
20630;BME280;17386;43.846;25.950;2024-03-02T00:59:12;101003.22;;;8.39;nan
20630;BME280;17386;43.846;25.950;2024-03-02T01:01:38;101003.25;;;8.36;nan
20630;BME280;17386;43.846;25.950;2024-03-02T01:04:03;101006.78;;;8.35;nan
20630;BME280;17386;43.846;25.950;2024-03-02T01:06:30;101009.38;;;8.39;nan
20630;BME280;17386;43.846;25.950;2024-03-02T01:08:55;101002.31;;;8.40;nan
20630;BME280;17386;43.846;25.950;2024-03-02T01:11:21;100999.69;;;8.37;nan
20630;BME280;17386;43.846;25.950;2024-03-02T01:13:49;100996.25;;;8.33;nan
20630;BME280;17386;43.846;25.950;2024-03-02T01:16:14;100997.97;;;8.36;nan
20630;BME280;17386;43.846;25.950;2024-03-02T01:18:41;100990.84;;;8.39;nan
20630;BME280;17386;43.846;25.950;2024-03-02T01:21:07;100974.25;;;8.30;nan
20630;BME280;17386;43.846;25.950;2024-03-02T01:23:32;100983.78;;;8.40;nan
20630;BME280;17386;43.846;25.950;2024-03-02T01:25:58;100988.06;;;8.45;nan
20630;BME280;17386;43.846;25.950;2024-03-02T01:28:23;100994.09;;;8.52;nan
20630;BME280;17386;43.846;25.950;2024-03-02T01:30:48;100994.97;;;8.53;nan
20630;BME280;17386;43.846;25.950;2024-03-02T01:33:15;100995.63;;;8.61;nan
20630;BME280;17386;43.846;25.950;2024-03-02T01:35:40;100998.59;;;8.47;nan
20630;BME280;17386;43.846;25.950;2024-03-02T01:38:06;100994.31;;;8.41;nan
20630;BME280;17386;43.846;25.950;2024-03-02T01:40:35;100985.56;;;8.39;nan
20630;BME280;17386;43.846;25.950;2024-03-02T01:43:01;100985.69;;;8.30;nan
20630;BME280;17386;43.846;25.950;2024-03-02T01:45:28;100982.22;;;8.28;nan
20630;BME280;17386;43.846;25.950;2024-03-02T01:47:53;100977.81;;;8.29;nan
20630;BME280;17386;43.846;25.950;2024-03-02T01:50:29;100977.44;;;8.47;nan
20630;BME280;17386;43.846;25.950;2024-03-02T01:52:56;100979.84;;;8.56;nan
20630;BME280;17386;43.846;25.950;2024-03-02T01:55:22;100977.44;;;8.47;nan
20630;BME280;17386;43.846;25.950;2024-03-02T01:57:51;100976.47;;;8.49;nan
20630;BME280;17386;43.846;25.950;2024-03-02T02:00:18;100974.97;;;8.39;nan
20630;BME280;17386;43.846;25.950;2024-03-02T02:02:44;100981.06;;;8.41;nan
20630;BME280;17386;43.846;25.950;2024-03-02T02:05:09;100981.84;;;8.46;nan
20630;BME280;17386;43.846;25.950;2024-03-02T02:07:35;100974.97;;;8.39;nan
20630;BME280;17386;43.846;25.950;2024-03-02T02:10:01;100980.84;;;8.50;nan
20630;BME280;17386;43.846;25.950;2024-03-02T02:12:26;100973.97;;;8.43;nan
20630;BME280;17386;43.846;25.950;2024-03-02T02:14:52;100965.09;;;8.46;nan
20630;BME280;17386;43.846;25.950;2024-03-02T02:17:17;100963.53;;;8.37;nan
20630;BME280;17386;43.846;25.950;2024-03-02T02:19:43;100954.94;;;8.26;nan
20630;BME280;17386;43.846;25.950;2024-03-02T02:22:10;100968.25;;;8.21;nan
20630;BME280;17386;43.846;25.950;2024-03-02T02:24:35;100968.34;;;8.18;nan
20630;BME280;17386;43.846;25.950;2024-03-02T02:27:00;100959.63;;;8.13;nan
20630;BME280;17386;43.846;25.950;2024-03-02T02:29:26;100959.59;;;8.15;nan
20630;BME280;17386;43.846;25.950;2024-03-02T02:31:52;100959.72;;;8.10;nan
20630;BME280;17386;43.846;25.950;2024-03-02T02:34:18;100963.97;;;8.16;nan
20630;BME280;17386;43.846;25.950;2024-03-02T02:36:43;100973.50;;;8.23;nan
20630;BME280;17386;43.846;25.950;2024-03-02T02:39:12;100968.31;;;8.20;nan
20630;BME280;17386;43.846;25.950;2024-03-02T02:41:39;100977.81;;;8.29;nan
20630;BME280;17386;43.846;25.950;2024-03-02T02:44:04;100970.03;;;8.21;nan
20630;BME280;17386;43.846;25.950;2024-03-02T02:46:30;100969.38;;;8.11;nan
20630;BME280;17386;43.846;25.950;2024-03-02T02:48:55;100960.66;;;8.06;nan
20630;BME280;17386;43.846;25.950;2024-03-02T02:51:21;100960.59;;;8.09;nan
20630;BME280;17386;43.846;25.950;2024-03-02T02:53:46;100963.97;;;8.17;nan
20630;BME280;17386;43.846;25.950;2024-03-02T02:56:11;100958.84;;;8.10;nan
20630;BME280;17386;43.846;25.950;2024-03-02T02:58:37;100974.50;;;8.19;nan
20630;BME280;17386;43.846;25.950;2024-03-02T03:01:03;100979.94;;;8.13;nan
20630;BME280;17386;43.846;25.950;2024-03-02T03:03:29;100978.81;;;8.23;nan
20630;BME280;17386;43.846;25.950;2024-03-02T03:05:54;100986.91;;;8.17;nan
20630;BME280;17386;43.846;25.950;2024-03-02T03:08:20;100987.59;;;8.25;nan
20630;BME280;17386;43.846;25.950;2024-03-02T03:10:45;100981.34;;;8.28;nan
20630;BME280;17386;43.846;25.950;2024-03-02T03:13:11;100983.34;;;8.18;nan
20630;BME280;17386;43.846;25.950;2024-03-02T03:15:36;100976.16;;;8.23;nan
20630;BME280;17386;43.846;25.950;2024-03-02T03:18:05;100983.84;;;8.35;nan
20630;BME280;17386;43.846;25.950;2024-03-02T03:20:32;100986.41;;;8.40;nan
20630;BME280;17386;43.846;25.950;2024-03-02T03:22:59;100979.25;;;8.45;nan
20630;BME280;17386;43.846;25.950;2024-03-02T03:25:24;100983.63;;;8.46;nan
20630;BME280;17386;43.846;25.950;2024-03-02T03:27:50;100965.53;;;8.26;nan
20630;BME280;17386;43.846;25.950;2024-03-02T03:30:17;100974.16;;;8.34;nan
20630;BME280;17386;43.846;25.950;2024-03-02T03:32:43;100973.59;;;8.20;nan
20630;BME280;17386;43.846;25.950;2024-03-02T03:35:08;100971.84;;;8.19;nan
20630;BME280;17386;43.846;25.950;2024-03-02T03:37:34;100973.47;;;8.26;nan
20630;BME280;17386;43.846;25.950;2024-03-02T03:40:00;100965.56;;;8.23;nan
20630;BME280;17386;43.846;25.950;2024-03-02T03:42:26;100975.91;;;8.35;nan
20630;BME280;17386;43.846;25.950;2024-03-02T03:44:51;100975.94;;;8.34;nan
20630;BME280;17386;43.846;25.950;2024-03-02T03:47:17;100979.44;;;8.37;nan
20630;BME280;17386;43.846;25.950;2024-03-02T03:49:42;100978.47;;;8.40;nan
20630;BME280;17386;43.846;25.950;2024-03-02T03:52:08;100978.38;;;8.44;nan
20630;BME280;17386;43.846;25.950;2024-03-02T03:54:33;100986.16;;;8.52;nan
20630;BME280;17386;43.846;25.950;2024-03-02T03:56:58;100978.06;;;8.57;nan
20630;BME280;17386;43.846;25.950;2024-03-02T03:59:24;100999.13;;;8.63;nan
20630;BME280;17386;43.846;25.950;2024-03-02T04:01:49;101001.66;;;8.67;nan
20630;BME280;17386;43.846;25.950;2024-03-02T04:04:15;100999.78;;;8.72;nan
20630;BME280;17386;43.846;25.950;2024-03-02T04:06:40;100989.91;;;8.79;nan
20630;BME280;17386;43.846;25.950;2024-03-02T04:09:05;100997.69;;;8.85;nan
20630;BME280;17386;43.846;25.950;2024-03-02T04:11:31;100995.06;;;8.84;nan
20630;BME280;17386;43.846;25.950;2024-03-02T04:13:56;100990.06;;;8.71;nan
20630;BME280;17386;43.846;25.950;2024-03-02T04:16:22;100987.28;;;8.77;nan
20630;BME280;17386;43.846;25.950;2024-03-02T04:18:48;100995.22;;;8.77;nan
20630;BME280;17386;43.846;25.950;2024-03-02T04:21:13;100989.91;;;8.79;nan
20630;BME280;17386;43.846;25.950;2024-03-02T04:23:38;100989.78;;;8.84;nan
20630;BME280;17386;43.846;25.950;2024-03-02T04:26:04;100983.66;;;8.82;nan
20630;BME280;17386;43.846;25.950;2024-03-02T04:28:29;100990.06;;;8.73;nan
20630;BME280;17386;43.846;25.950;2024-03-02T04:30:55;100993.03;;;8.59;nan
20630;BME280;17386;43.846;25.950;2024-03-02T04:33:20;100985.97;;;8.60;nan
20630;BME280;17386;43.846;25.950;2024-03-02T04:35:45;101004.09;;;8.76;nan
20630;BME280;17386;43.846;25.950;2024-03-02T04:38:11;101004.16;;;8.73;nan
20630;BME280;17386;43.846;25.950;2024-03-02T04:40:37;101005.72;;;8.82;nan
20630;BME280;17386;43.846;25.950;2024-03-02T04:43:02;101010.97;;;8.84;nan
20630;BME280;17386;43.846;25.950;2024-03-02T04:45:29;101013.66;;;8.82;nan
20630;BME280;17386;43.846;25.950;2024-03-02T04:47:54;101010.34;;;8.74;nan
20630;BME280;17386;43.846;25.950;2024-03-02T04:50:20;101016.28;;;8.84;nan
20630;BME280;17386;43.846;25.950;2024-03-02T04:52:45;100997.78;;;8.82;nan
20630;BME280;17386;43.846;25.950;2024-03-02T04:55:11;101015.34;;;8.86;nan
20630;BME280;17386;43.846;25.950;2024-03-02T04:57:43;101000.22;;;8.90;nan
20630;BME280;17386;43.846;25.950;2024-03-02T05:00:09;101008.13;;;8.93;nan
20630;BME280;17386;43.846;25.950;2024-03-02T05:02:35;101007.22;;;8.94;nan
20630;BME280;17386;43.846;25.950;2024-03-02T05:05:00;101025.81;;;8.92;nan
20630;BME280;17386;43.846;25.950;2024-03-02T05:07:26;101026.56;;;8.96;nan
20630;BME280;17386;43.846;25.950;2024-03-02T05:09:51;101023.88;;;8.97;nan
20630;BME280;17386;43.846;25.950;2024-03-02T05:12:17;101005.38;;;8.96;nan
20630;BME280;17386;43.846;25.950;2024-03-02T05:15:06;100998.38;;;8.93;nan
20630;BME280;17386;43.846;25.950;2024-03-02T05:17:32;100989.72;;;8.87;nan
20630;BME280;17386;43.846;25.950;2024-03-02T05:19:58;101016.78;;;8.99;nan
20630;BME280;17386;43.846;25.950;2024-03-02T05:22:23;101026.38;;;9.03;nan
20630;BME280;17386;43.846;25.950;2024-03-02T05:24:49;101030.63;;;9.11;nan
20630;BME280;17386;43.846;25.950;2024-03-02T05:27:14;101024.41;;;9.13;nan
20630;BME280;17386;43.846;25.950;2024-03-02T05:29:40;101031.44;;;9.14;nan
20630;BME280;17386;43.846;25.950;2024-03-02T05:32:05;101030.38;;;9.21;nan
20630;BME280;17386;43.846;25.950;2024-03-02T05:34:31;101030.22;;;9.26;nan
20630;BME280;17386;43.846;25.950;2024-03-02T05:36:58;101032.78;;;9.30;nan
20630;BME280;17386;43.846;25.950;2024-03-02T05:39:23;101043.47;;;9.27;nan
20630;BME280;17386;43.846;25.950;2024-03-02T05:41:49;101041.69;;;9.28;nan
20630;BME280;17386;43.846;25.950;2024-03-02T05:44:14;101044.03;;;9.39;nan
20630;BME280;17386;43.846;25.950;2024-03-02T05:46:41;101036.13;;;9.37;nan
20630;BME280;17386;43.846;25.950;2024-03-02T05:49:07;101043.91;;;9.45;nan
20630;BME280;17386;43.846;25.950;2024-03-02T05:51:33;101048.78;;;9.60;nan
20630;BME280;17386;43.846;25.950;2024-03-02T05:53:58;101047.22;;;9.53;nan
20630;BME280;17386;43.846;25.950;2024-03-02T05:56:24;101056.03;;;9.53;nan
20630;BME280;17386;43.846;25.950;2024-03-02T05:58:49;101055.09;;;9.56;nan
20630;BME280;17386;43.846;25.950;2024-03-02T06:01:33;101031.06;;;9.62;nan
20630;BME280;17386;43.846;25.950;2024-03-02T06:03:58;101025.78;;;9.60;nan
20630;BME280;17386;43.846;25.950;2024-03-02T06:06:24;101036.44;;;9.59;nan
20630;BME280;17386;43.846;25.950;2024-03-02T06:08:50;101043.47;;;9.62;nan
20630;BME280;17386;43.846;25.950;2024-03-02T06:11:16;101039.56;;;9.42;nan
20630;BME280;17386;43.846;25.950;2024-03-02T06:13:41;101041.41;;;9.39;nan
20630;BME280;17386;43.846;25.950;2024-03-02T06:16:07;101033.34;;;9.43;nan
20630;BME280;17386;43.846;25.950;2024-03-02T06:18:33;101026.03;;;9.51;nan
20630;BME280;17386;43.846;25.950;2024-03-02T06:20:59;101039.25;;;9.54;nan
20630;BME280;17386;43.846;25.950;2024-03-02T06:23:26;101035.72;;;9.52;nan
20630;BME280;17386;43.846;25.950;2024-03-02T06:25:51;101035.72;;;9.52;nan
20630;BME280;17386;43.846;25.950;2024-03-02T06:28:17;101036.59;;;9.54;nan
20630;BME280;17386;43.846;25.950;2024-03-02T06:30:42;101034.81;;;9.53;nan
20630;BME280;17386;43.846;25.950;2024-03-02T06:33:08;101023.59;;;9.44;nan
20630;BME280;17386;43.846;25.950;2024-03-02T06:35:34;101037.88;;;9.38;nan
20630;BME280;17386;43.846;25.950;2024-03-02T06:38:00;101028.91;;;9.44;nan
20630;BME280;17386;43.846;25.950;2024-03-02T06:40:25;101012.13;;;9.43;nan
20630;BME280;17386;43.846;25.950;2024-03-02T06:42:51;101014.88;;;9.39;nan
20630;BME280;17386;43.846;25.950;2024-03-02T06:45:16;101006.50;;;9.21;nan
20630;BME280;17386;43.846;25.950;2024-03-02T06:47:42;101022.22;;;9.29;nan
20630;BME280;17386;43.846;25.950;2024-03-02T06:50:08;101039.25;;;9.20;nan
20630;BME280;17386;43.846;25.950;2024-03-02T06:52:34;101054.09;;;9.26;nan
20630;BME280;17386;43.846;25.950;2024-03-02T06:55:00;101056.13;;;9.16;nan
20630;BME280;17386;43.846;25.950;2024-03-02T06:57:25;101057.56;;;9.29;nan
20630;BME280;17386;43.846;25.950;2024-03-02T06:59:51;101053.41;;;9.18;nan
20630;BME280;17386;43.846;25.950;2024-03-02T07:02:19;101056.53;;;9.35;nan
20630;BME280;17386;43.846;25.950;2024-03-02T07:04:44;101085.44;;;9.44;nan
20630;BME280;17386;43.846;25.950;2024-03-02T07:07:10;101073.19;;;9.40;nan
20630;BME280;17386;43.846;25.950;2024-03-02T07:09:36;101062.34;;;9.49;nan
20630;BME280;17386;43.846;25.950;2024-03-02T07:12:01;101063.38;;;9.44;nan
20630;BME280;17386;43.846;25.950;2024-03-02T07:14:27;101073.19;;;9.40;nan
20630;BME280;17386;43.846;25.950;2024-03-02T07:17:12;101071.94;;;9.53;nan
20630;BME280;17386;43.846;25.950;2024-03-02T07:19:38;101071.88;;;9.56;nan
20630;BME280;17386;43.846;25.950;2024-03-02T07:22:07;101077.25;;;9.53;nan
20630;BME280;17386;43.846;25.950;2024-03-02T07:24:43;101060.44;;;9.54;nan
20630;BME280;17386;43.846;25.950;2024-03-02T07:27:12;101042.78;;;9.53;nan
20630;BME280;17386;43.846;25.950;2024-03-02T07:29:38;101058.13;;;9.75;nan
20630;BME280;17386;43.846;25.950;2024-03-02T07:32:04;101052.31;;;9.60;nan
20630;BME280;17386;43.846;25.950;2024-03-02T07:34:30;101041.88;;;9.54;nan
20630;BME280;17386;43.846;25.950;2024-03-02T07:36:55;101037.06;;;9.69;nan
20630;BME280;17386;43.846;25.950;2024-03-02T07:39:21;101032.31;;;9.80;nan
20630;BME280;17386;43.846;25.950;2024-03-02T07:41:47;101039.09;;;9.92;nan
20630;BME280;17386;43.846;25.950;2024-03-02T07:44:13;101030.78;;;10.04;nan
20630;BME280;17386;43.846;25.950;2024-03-02T07:46:43;101031.19;;;10.20;nan
20630;BME280;17386;43.846;25.950;2024-03-02T07:49:08;101038.03;;;10.30;nan
20630;BME280;17386;43.846;25.950;2024-03-02T07:51:34;101030.59;;;10.41;nan
20630;BME280;17386;43.846;25.950;2024-03-02T07:53:59;101035.59;;;10.52;nan
20630;BME280;17386;43.846;25.950;2024-03-02T07:56:25;101047.50;;;10.66;nan
20630;BME280;17386;43.846;25.950;2024-03-02T07:58:50;101030.28;;;10.52;nan
20630;BME280;17386;43.846;25.950;2024-03-02T08:01:16;101043.78;;;10.44;nan
20630;BME280;17386;43.846;25.950;2024-03-02T08:03:43;101058.50;;;10.54;nan
20630;BME280;17386;43.846;25.950;2024-03-02T08:06:16;101051.84;;;10.41;nan
20630;BME280;17386;43.846;25.950;2024-03-02T08:08:41;101042.13;;;10.40;nan
20630;BME280;17386;43.846;25.950;2024-03-02T08:11:07;101043.97;;;10.38;nan
20630;BME280;17386;43.846;25.950;2024-03-02T08:13:32;101034.34;;;10.34;nan
20630;BME280;17386;43.846;25.950;2024-03-02T08:15:58;101042.19;;;10.38;nan
20630;BME280;17386;43.846;25.950;2024-03-02T08:18:24;101030.84;;;10.61;nan
20630;BME280;17386;43.846;25.950;2024-03-02T08:20:50;101052.25;;;10.85;nan
20630;BME280;17386;43.846;25.950;2024-03-02T08:23:15;101046.78;;;10.61;nan
20630;BME280;17386;43.846;25.950;2024-03-02T08:25:41;101058.69;;;10.78;nan
20630;BME280;17386;43.846;25.950;2024-03-02T08:28:07;101053.75;;;10.93;nan
20630;BME280;17386;43.846;25.950;2024-03-02T08:30:32;101051.38;;;11.12;nan
20630;BME280;17386;43.846;25.950;2024-03-02T08:32:58;101054.72;;;11.17;nan
20630;BME280;17386;43.846;25.950;2024-03-02T08:35:23;101048.72;;;11.11;nan
20630;BME280;17386;43.846;25.950;2024-03-02T08:37:49;101052.94;;;10.91;nan
20630;BME280;17386;43.846;25.950;2024-03-02T08:40:15;101046.88;;;10.86;nan
20630;BME280;17386;43.846;25.950;2024-03-02T08:42:40;101049.09;;;11.00;nan
20630;BME280;17386;43.846;25.950;2024-03-02T08:45:07;101040.50;;;10.92;nan
20630;BME280;17386;43.846;25.950;2024-03-02T08:47:33;101042.19;;;10.94;nan
20630;BME280;17386;43.846;25.950;2024-03-02T08:49:59;101034.69;;;11.07;nan
20630;BME280;17386;43.846;25.950;2024-03-02T08:52:25;101047.88;;;11.10;nan
20630;BME280;17386;43.846;25.950;2024-03-02T08:54:50;101036.88;;;11.21;nan
20630;BME280;17386;43.846;25.950;2024-03-02T08:57:16;101042.13;;;11.49;nan
20630;BME280;17386;43.846;25.950;2024-03-02T08:59:41;101027.63;;;11.58;nan
20630;BME280;17386;43.846;25.950;2024-03-02T09:02:07;101029.16;;;11.65;nan
20630;BME280;17386;43.846;25.950;2024-03-02T09:04:32;101029.81;;;11.71;nan
20630;BME280;17386;43.846;25.950;2024-03-02T09:06:58;101032.34;;;12.01;nan
20630;BME280;17386;43.846;25.950;2024-03-02T09:09:23;101029.69;;;12.01;nan
20630;BME280;17386;43.846;25.950;2024-03-02T09:11:49;101036.59;;;12.05;nan
20630;BME280;17386;43.846;25.950;2024-03-02T09:14:14;101025.66;;;12.13;nan
20630;BME280;17386;43.846;25.950;2024-03-02T09:16:40;101034.66;;;12.10;nan
20630;BME280;17386;43.846;25.950;2024-03-02T09:19:05;101036.09;;;12.19;nan
20630;BME280;17386;43.846;25.950;2024-03-02T09:21:31;101036.28;;;12.38;nan
20630;BME280;17386;43.846;25.950;2024-03-02T09:23:57;101031.63;;;12.19;nan
20630;BME280;17386;43.846;25.950;2024-03-02T09:26:24;101031.34;;;12.27;nan
20630;BME280;17386;43.846;25.950;2024-03-02T09:28:50;101040.59;;;12.40;nan
20630;BME280;17386;43.846;25.950;2024-03-02T09:31:16;101040.44;;;12.45;nan
20630;BME280;17386;43.846;25.950;2024-03-02T09:33:41;101031.97;;;12.57;nan
20630;BME280;17386;43.846;25.950;2024-03-02T09:36:19;101038.56;;;12.70;nan
20630;BME280;17386;43.846;25.950;2024-03-02T09:38:45;101048.84;;;13.01;nan
20630;BME280;17386;43.846;25.950;2024-03-02T09:41:11;101040.59;;;13.29;nan
20630;BME280;17386;43.846;25.950;2024-03-02T09:43:40;101057.81;;;13.43;nan
20630;BME280;17386;43.846;25.950;2024-03-02T09:46:08;101056.91;;;13.22;nan
20630;BME280;17386;43.846;25.950;2024-03-02T09:48:34;101047.25;;;12.97;nan
20630;BME280;17386;43.846;25.950;2024-03-02T09:51:00;101040.34;;;13.35;nan
20630;BME280;17386;43.846;25.950;2024-03-02T09:53:31;101048.53;;;13.51;nan
20630;BME280;17386;43.846;25.950;2024-03-02T09:55:56;101056.75;;;13.03;nan
20630;BME280;17386;43.846;25.950;2024-03-02T09:58:22;101036.97;;;13.08;nan
20630;BME280;17386;43.846;25.950;2024-03-02T10:00:47;101050.28;;;13.32;nan
20630;BME280;17386;43.846;25.950;2024-03-02T10:03:14;101064.34;;;13.13;nan
20630;BME280;17386;43.846;25.950;2024-03-02T10:05:40;101053.59;;;13.15;nan
20630;BME280;17386;43.846;25.950;2024-03-02T10:08:05;101032.59;;;13.29;nan
20630;BME280;17386;43.846;25.950;2024-03-02T10:10:36;101059.56;;;13.64;nan
20630;BME280;17386;43.846;25.950;2024-03-02T10:13:06;101042.91;;;13.59;nan
20630;BME280;17386;43.846;25.950;2024-03-02T10:15:31;101052.75;;;13.57;nan
20630;BME280;17386;43.846;25.950;2024-03-02T10:17:57;101063.94;;;13.66;nan
20630;BME280;17386;43.846;25.950;2024-03-02T10:20:26;101064.56;;;13.92;nan
20630;BME280;17386;43.846;25.950;2024-03-02T10:22:55;101047.69;;;13.71;nan
20630;BME280;17386;43.846;25.950;2024-03-02T10:28:00;101062.84;;;14.30;nan
20630;BME280;17386;43.846;25.950;2024-03-02T10:30:28;101058.34;;;14.51;nan
20630;BME280;17386;43.846;25.950;2024-03-02T10:32:54;101046.56;;;14.16;nan
20630;BME280;17386;43.846;25.950;2024-03-02T10:35:22;101051.66;;;14.22;nan
20630;BME280;17386;43.846;25.950;2024-03-02T10:37:49;101056.91;;;14.23;nan
20630;BME280;17386;43.846;25.950;2024-03-02T10:40:15;101044.13;;;14.30;nan
20630;BME280;17386;43.846;25.950;2024-03-02T10:42:41;101048.75;;;14.27;nan
20630;BME280;17386;43.846;25.950;2024-03-02T10:45:09;101034.06;;;14.56;nan
20630;BME280;17386;43.846;25.950;2024-03-02T10:47:36;101034.78;;;14.59;nan
20630;BME280;17386;43.846;25.950;2024-03-02T10:50:04;101034.94;;;14.56;nan
20630;BME280;17386;43.846;25.950;2024-03-02T10:52:39;101040.50;;;14.70;nan
20630;BME280;17386;43.846;25.950;2024-03-02T10:55:06;101043.19;;;14.31;nan
20630;BME280;17386;43.846;25.950;2024-03-02T10:57:45;101029.84;;;14.31;nan
20630;BME280;17386;43.846;25.950;2024-03-02T11:00:15;101020.13;;;14.49;nan
20630;BME280;17386;43.846;25.950;2024-03-02T11:02:51;101031.03;;;14.63;nan
20630;BME280;17386;43.846;25.950;2024-03-02T11:05:31;101019.88;;;14.72;nan
20630;BME280;17386;43.846;25.950;2024-03-02T11:08:06;101026.47;;;15.01;nan
20630;BME280;17386;43.846;25.950;2024-03-02T11:10:48;101014.47;;;15.10;nan
20630;BME280;17386;43.846;25.950;2024-03-02T11:13:22;101031.38;;;15.11;nan
20630;BME280;17386;43.846;25.950;2024-03-02T11:15:48;101014.91;;;15.01;nan
20630;BME280;17386;43.846;25.950;2024-03-02T11:18:15;101023.41;;;15.09;nan
20630;BME280;17386;43.846;25.950;2024-03-02T11:20:41;101028.38;;;14.81;nan
20630;BME280;17386;43.846;25.950;2024-03-02T11:23:09;101028.53;;;14.21;nan
20630;BME280;17386;43.846;25.950;2024-03-02T11:25:35;101015.66;;;14.10;nan
20630;BME280;17386;43.846;25.950;2024-03-02T11:28:02;101013.09;;;14.28;nan
20630;BME280;17386;43.846;25.950;2024-03-02T11:32:56;101018.47;;;14.26;nan
20630;BME280;17386;43.846;25.950;2024-03-02T11:35:24;101013.38;;;13.82;nan
20630;BME280;17386;43.846;25.950;2024-03-02T11:37:51;101017.53;;;13.69;nan
20630;BME280;17386;43.846;25.950;2024-03-02T11:40:22;101015.78;;;13.27;nan
20630;BME280;17386;43.846;25.950;2024-03-02T11:42:48;101006.97;;;13.25;nan
20630;BME280;17386;43.846;25.950;2024-03-02T11:45:16;101005.81;;;13.31;nan
20630;BME280;17386;43.846;25.950;2024-03-02T11:47:50;100990.91;;;13.27;nan
20630;BME280;17386;43.846;25.950;2024-03-02T11:50:15;101000.31;;;13.35;nan
20630;BME280;17386;43.846;25.950;2024-03-02T11:52:53;100995.47;;;13.45;nan
20630;BME280;17386;43.846;25.950;2024-03-02T11:55:19;100998.56;;;13.55;nan
20630;BME280;17386;43.846;25.950;2024-03-02T11:57:46;100992.19;;;13.38;nan
20630;BME280;17386;43.846;25.950;2024-03-02T12:00:18;100981.88;;;13.29;nan
20630;BME280;17386;43.846;25.950;2024-03-02T12:02:45;100991.50;;;13.33;nan
20630;BME280;17386;43.846;25.950;2024-03-02T12:05:15;100982.50;;;13.36;nan
20630;BME280;17386;43.846;25.950;2024-03-02T12:07:42;100986.97;;;13.56;nan
20630;BME280;17386;43.846;25.950;2024-03-02T12:10:08;100978.44;;;13.48;nan
20630;BME280;17386;43.846;25.950;2024-03-02T12:12:34;100985.31;;;13.33;nan
20630;BME280;17386;43.846;25.950;2024-03-02T12:14:59;100983.88;;;13.45;nan
20630;BME280;17386;43.846;25.950;2024-03-02T12:17:26;100978.03;;;13.36;nan
20630;BME280;17386;43.846;25.950;2024-03-02T12:19:51;100979.81;;;13.36;nan
20630;BME280;17386;43.846;25.950;2024-03-02T12:22:18;100984.19;;;13.38;nan
20630;BME280;17386;43.846;25.950;2024-03-02T12:24:44;100975.84;;;13.26;nan
20630;BME280;17386;43.846;25.950;2024-03-02T12:27:13;100985.03;;;13.17;nan
20630;BME280;17386;43.846;25.950;2024-03-02T12:29:40;100986.53;;;13.24;nan
20630;BME280;17386;43.846;25.950;2024-03-02T12:32:05;100984.50;;;13.09;nan
20630;BME280;17386;43.846;25.950;2024-03-02T12:34:32;100979.63;;;12.98;nan
20630;BME280;17386;43.846;25.950;2024-03-02T12:36:58;100979.31;;;13.06;nan
20630;BME280;17386;43.846;25.950;2024-03-02T12:39:23;100976.25;;;13.15;nan
20630;BME280;17386;43.846;25.950;2024-03-02T12:41:50;100973.03;;;13.29;nan
20630;BME280;17386;43.846;25.950;2024-03-02T12:44:19;100974.09;;;13.25;nan
20630;BME280;17386;43.846;25.950;2024-03-02T12:46:46;100975.53;;;13.11;nan
20630;BME280;17386;43.846;25.950;2024-03-02T12:49:13;100968.81;;;13.23;nan
20630;BME280;17386;43.846;25.950;2024-03-02T12:51:40;100971.38;;;13.26;nan
20630;BME280;17386;43.846;25.950;2024-03-02T12:54:10;100975.19;;;13.19;nan
20630;BME280;17386;43.846;25.950;2024-03-02T12:56:40;100971.75;;;13.37;nan
20630;BME280;17386;43.846;25.950;2024-03-02T12:59:17;100975.41;;;13.55;nan
20630;BME280;17386;43.846;25.950;2024-03-02T13:01:55;100981.88;;;13.50;nan
20630;BME280;17386;43.846;25.950;2024-03-02T13:04:25;100980.84;;;13.54;nan
20630;BME280;17386;43.846;25.950;2024-03-02T13:06:52;100981.50;;;13.59;nan
20630;BME280;17386;43.846;25.950;2024-03-02T13:09:17;100971.34;;;13.67;nan